createdAt,value
2019-04-21T00:01:05.038Z,95703.20
2019-04-21T00:03:35.556Z,95712.95
2019-04-21T00:06:15.692Z,95709.11
2019-04-21T00:08:50.489Z,95708.70
2019-04-21T00:13:42.725Z,95714.48
2019-04-21T00:16:00.264Z,95716.81
2019-04-21T00:19:00.851Z,95711.03
2019-04-21T00:21:31.262Z,95706.20
2019-04-21T00:24:23.995Z,95707.01
2019-04-21T00:27:05.233Z,95729.72
2019-04-21T00:29:36.715Z,95723.45
2019-04-21T00:31:58.872Z,95699.28
2019-04-21T00:34:13.277Z,95699.60
2019-04-21T00:36:54.875Z,95696.39
2019-04-21T00:39:45.073Z,95703.94
2019-04-21T00:42:00.946Z,95704.41
2019-04-21T00:44:24.490Z,95707.48
2019-04-21T00:46:58.131Z,95702.14
2019-04-21T00:49:27.133Z,95694.27
2019-04-21T00:55:14.146Z,95689.80
2019-04-21T00:57:38.747Z,95686.46
2019-04-21T00:59:59.549Z,95690.00
2019-04-21T01:02:36.721Z,95688.24
2019-04-21T01:05:06.432Z,95684.69
2019-04-21T01:07:31.396Z,95685.80
2019-04-21T01:09:48.599Z,95685.34
2019-04-21T01:12:26.895Z,95690.14
2019-04-21T01:15:04.846Z,95689.80
2019-04-21T01:17:27.657Z,95693.97
2019-04-21T01:19:51.198Z,95695.83
2019-04-21T01:22:04.888Z,95693.23
2019-04-21T01:24:36.181Z,95682.33
2019-04-21T01:27:10.032Z,95690.23
2019-04-21T01:29:58.334Z,95688.16
2019-04-21T01:32:24.243Z,95686.48
2019-04-21T01:34:56.107Z,95683.91
2019-04-21T01:37:21.202Z,95681.06
2019-04-21T01:39:53.297Z,95685.25
2019-04-21T01:42:24.180Z,95682.02
2019-04-21T01:44:50.006Z,95671.70
2019-04-21T01:47:10.249Z,95672.97
2019-04-21T01:49:39.511Z,95685.81
2019-04-21T01:52:24.845Z,95664.16
2019-04-21T01:55:08.316Z,95663.41
2019-04-21T01:57:54.024Z,95659.69
2019-04-21T02:00:32.658Z,95674.39
2019-04-21T02:03:12.912Z,95655.47
2019-04-21T02:05:40.897Z,95649.19
2019-04-21T02:08:03.643Z,95672.50
2019-04-21T02:10:40.435Z,95644.98
2019-04-21T02:13:03.645Z,95637.30
2019-04-21T02:15:39.083Z,95644.66
2019-04-21T02:18:04.622Z,95659.09
2019-04-21T02:20:21.834Z,95640.89
2019-04-21T02:23:23.019Z,95655.13
2019-04-21T02:25:31.842Z,95652.61
2019-04-21T02:28:03.697Z,95638.34
2019-04-21T02:30:45.600Z,95654.16
2019-04-21T02:33:16.923Z,95631.72
2019-04-21T02:36:00.642Z,95652.39
2019-04-21T02:38:09.042Z,95632.57
2019-04-21T02:40:46.607Z,95644.52
2019-04-21T02:43:11.227Z,95632.69
2019-04-21T02:45:39.385Z,95642.51
2019-04-21T02:48:08.837Z,95622.72
2019-04-21T02:50:38.127Z,95627.74
2019-04-21T02:53:14.047Z,95620.05
2019-04-21T02:55:42.026Z,95611.82
2019-04-21T03:01:08.050Z,95656.37
2019-04-21T03:04:02.627Z,95655.75
2019-04-21T03:06:29.100Z,95637.86
2019-04-21T03:09:03.354Z,95642.84
2019-04-21T03:11:25.235Z,95636.36
2019-04-21T03:14:05.560Z,95640.82
2019-04-21T03:16:31.110Z,95652.48
2019-04-21T03:18:57.133Z,95630.96
2019-04-21T03:21:33.963Z,95642.77
2019-04-21T03:23:58.362Z,95621.66
2019-04-21T03:28:52.170Z,95622.87
2019-04-21T03:31:50.840Z,95641.66
2019-04-21T03:34:28.958Z,95620.47
2019-04-21T03:38:47.303Z,95625.42
2019-04-21T03:41:18.870Z,95648.75
2019-04-21T03:43:50.100Z,95622.44
2019-04-21T03:46:23.212Z,95620.95
2019-04-21T03:51:21.380Z,95620.77
2019-04-21T03:53:45.935Z,95625.13
2019-04-21T03:56:44.827Z,95624.52
2019-04-21T04:01:44.507Z,95620.81
2019-04-21T04:07:06.079Z,95621.09
2019-04-21T04:09:52.235Z,95617.13
2019-04-21T04:12:02.700Z,95621.73
2019-04-21T04:14:42.365Z,95617.51
2019-04-21T04:22:15.171Z,95616.05
2019-04-21T04:27:05.093Z,95616.76
2019-04-21T04:31:58.785Z,95623.59
2019-04-21T04:34:40.876Z,95641.39
2019-04-21T04:37:21.467Z,95624.80
2019-04-21T04:40:10.635Z,95640.14
2019-04-21T04:45:18.049Z,95646.39
2019-04-21T04:47:33.394Z,95635.50
2019-04-21T04:50:26.290Z,95625.36
2019-04-21T04:53:01.940Z,95623.16
2019-04-21T04:55:08.137Z,95616.33
2019-04-21T04:57:49.073Z,95614.69
2019-04-21T05:00:15.693Z,95617.56
2019-04-21T05:05:15.334Z,95615.03
2019-04-21T05:10:18.012Z,95608.06
2019-04-21T05:12:29.270Z,95612.17
2019-04-21T05:15:04.158Z,95640.25
2019-04-21T05:17:43.237Z,95612.47
2019-04-21T05:24:44.167Z,95615.72
2019-04-21T05:27:36.526Z,95639.66
2019-04-21T05:30:07.223Z,95612.17
2019-04-21T05:33:07.101Z,95607.23
2019-04-21T05:35:49.326Z,95614.19
2019-04-21T05:38:28.855Z,95605.73
2019-04-21T05:40:55.175Z,95595.91
2019-04-21T05:43:32.451Z,95599.85
2019-04-21T05:46:10.431Z,95602.84
2019-04-21T05:48:43.704Z,95624.46
2019-04-21T05:51:10.630Z,95605.09
2019-04-21T05:53:44.030Z,95604.30
2019-04-21T05:56:10.047Z,95620.24
2019-04-21T05:58:43.581Z,95624.95
2019-04-21T06:03:54.846Z,95598.33
2019-04-21T06:08:46.941Z,95595.83
2019-04-21T06:11:13.117Z,95590.20
2019-04-21T06:16:07.424Z,95319.19
2019-04-21T06:21:09.833Z,95583.25
2019-04-21T06:23:55.521Z,95589.06
2019-04-21T06:28:40.156Z,95585.77
2019-04-21T06:31:12.676Z,95583.75
2019-04-21T06:33:44.797Z,95581.98
2019-04-21T06:36:39.645Z,95584.78
2019-04-21T06:41:32.561Z,95575.14
2019-04-21T06:44:29.686Z,95589.25
2019-04-21T06:46:34.997Z,95568.37
2019-04-21T06:51:29.541Z,95572.60
2019-04-21T06:54:03.516Z,95600.42
2019-04-21T06:56:30.965Z,95579.33
2019-04-21T06:58:58.776Z,95580.27
2019-04-21T07:01:34.636Z,95581.11
2019-04-21T07:04:05.725Z,95573.64
2019-04-21T07:06:32.466Z,95587.80
2019-04-21T07:09:02.501Z,95575.27
2019-04-21T07:11:21.692Z,95581.99
2019-04-21T07:14:04.078Z,95580.55
2019-04-21T07:16:25.706Z,95593.09
2019-04-21T07:19:01.068Z,95576.70
2019-04-21T07:21:20.707Z,95569.47
2019-04-21T07:23:53.865Z,95573.42
2019-04-21T07:26:22.524Z,95569.16
2019-04-21T07:28:56.327Z,95562.05
2019-04-21T07:31:17.863Z,95563.63
2019-04-21T07:36:21.873Z,95559.48
2019-04-21T07:38:45.838Z,95555.84
2019-04-21T07:41:09.269Z,95555.36
2019-04-21T07:43:41.285Z,95557.22
2019-04-21T07:46:10.614Z,95556.97
2019-04-21T07:48:49.759Z,95547.36
2019-04-21T07:51:45.635Z,95557.92
2019-04-21T07:54:18.240Z,95545.77
2019-04-21T07:56:28.313Z,95540.91
2019-04-21T07:59:10.043Z,95544.64
2019-04-21T08:01:48.259Z,95539.12
2019-04-21T08:04:34.659Z,95534.41
2019-04-21T08:06:46.579Z,95530.59
2019-04-21T08:09:12.390Z,95525.69
2019-04-21T08:11:39.636Z,95529.03
2019-04-21T08:14:06.914Z,95522.66
2019-04-21T08:16:48.629Z,95522.05
2019-04-21T08:19:12.871Z,95515.81
2019-04-21T08:21:44.692Z,95512.88
2019-04-21T08:24:12.695Z,95515.10
2019-04-21T08:26:46.286Z,95509.44
2019-04-21T08:29:20.689Z,95513.55
2019-04-21T08:31:51.658Z,95503.94
2019-04-21T08:36:33.957Z,95503.54
2019-04-21T08:39:06.510Z,95517.20
2019-04-21T08:41:36.204Z,95506.29
2019-04-21T08:44:06.946Z,95513.07
2019-04-21T08:46:44.676Z,95492.19
2019-04-21T08:49:10.873Z,95460.73
2019-04-21T08:51:55.828Z,95493.00
2019-04-21T08:54:11.429Z,95502.67
2019-04-21T08:57:07.821Z,95484.39
2019-04-21T09:00:04.930Z,95483.14
2019-04-21T09:02:57.409Z,95490.84
2019-04-21T09:05:17.646Z,95466.59
2019-04-21T09:07:55.366Z,95478.98
2019-04-21T09:10:17.301Z,95461.89
2019-04-21T09:12:46.703Z,95474.24
2019-04-21T09:15:21.649Z,95456.82
2019-04-21T09:17:41.107Z,95456.82
2019-04-21T09:20:25.114Z,95446.17
2019-04-21T09:22:52.558Z,95447.00
2019-04-21T09:25:19.957Z,95450.91
2019-04-21T09:27:51.775Z,95453.75
2019-04-21T09:30:03.425Z,95439.56
2019-04-21T09:32:32.992Z,95454.62
2019-04-21T09:35:05.652Z,95446.25
2019-04-21T09:37:39.553Z,95424.56
2019-04-21T09:39:59.108Z,95430.48
2019-04-21T09:42:36.049Z,95422.95
2019-04-21T09:45:00.580Z,95421.27
2019-04-21T09:47:35.109Z,95412.03
2019-04-21T09:49:56.281Z,95409.47
2019-04-21T09:52:29.338Z,95362.92
2019-04-21T09:55:02.099Z,95411.63
2019-04-21T09:57:35.047Z,95402.59
2019-04-21T10:00:04.088Z,95410.26
2019-04-21T10:02:34.284Z,95395.19
2019-04-21T10:04:51.249Z,95402.08
2019-04-21T10:07:27.501Z,95397.19
2019-04-21T10:09:50.007Z,95401.64
2019-04-21T10:12:17.558Z,95393.51
2019-04-21T10:14:45.472Z,95384.82
2019-04-21T10:17:22.338Z,95383.09
2019-04-21T10:19:50.659Z,95388.60
2019-04-21T10:22:18.981Z,95374.95
2019-04-21T10:24:46.798Z,95358.30
2019-04-21T10:27:14.842Z,95368.84
2019-04-21T10:29:43.534Z,95365.61
2019-04-21T10:32:11.656Z,95356.40
2019-04-21T10:34:41.105Z,95356.40
2019-04-21T10:37:09.123Z,95345.73
2019-04-21T10:39:37.818Z,95338.30
2019-04-21T10:42:05.687Z,95340.42
2019-04-21T10:44:34.627Z,95334.72
2019-04-21T10:47:02.665Z,95327.33
2019-04-21T10:49:32.765Z,95334.69
2019-04-21T10:52:04.602Z,95319.63
2019-04-21T10:54:56.754Z,95322.45
2019-04-21T10:57:04.300Z,95322.17
2019-04-21T11:02:49.161Z,95309.12
2019-04-21T11:05:20.748Z,95313.05
2019-04-21T11:08:07.854Z,95305.16
2019-04-21T11:10:27.802Z,95305.28
2019-04-21T11:12:58.738Z,95297.08
2019-04-21T11:15:29.473Z,95295.56
2019-04-21T11:18:00.115Z,95295.75
2019-04-21T11:20:30.996Z,95301.70
2019-04-21T11:23:01.863Z,95039.61
2019-04-21T11:25:33.714Z,95294.17
2019-04-21T11:28:05.113Z,95293.08
2019-04-21T11:30:35.875Z,95301.11
2019-04-21T11:33:07.057Z,95295.40
2019-04-21T11:35:37.668Z,95289.50
2019-04-21T11:38:17.972Z,95285.85
2019-04-21T11:40:43.731Z,95283.97
2019-04-21T11:43:15.656Z,95283.54
2019-04-21T11:45:46.495Z,95282.02
2019-04-21T11:48:28.191Z,95276.73
2019-04-21T11:50:59.283Z,95276.80
2019-04-21T11:53:30.762Z,95270.20
2019-04-21T11:56:01.180Z,95278.78
2019-04-21T11:58:31.954Z,95280.31
2019-04-21T12:01:03.449Z,95271.62
2019-04-21T12:03:34.010Z,95263.45
2019-04-21T12:06:05.763Z,95265.48
2019-04-21T12:08:41.265Z,95260.70
2019-04-21T12:11:09.430Z,95251.90
2019-04-21T12:13:40.419Z,95257.07
2019-04-21T12:16:12.876Z,95260.04
2019-04-21T12:18:43.332Z,95260.13
2019-04-21T12:21:14.110Z,95253.41
2019-04-21T12:23:44.800Z,95251.97
2019-04-21T12:26:15.950Z,95243.21
2019-04-21T12:28:47.905Z,95247.81
2019-04-21T12:31:55.723Z,95244.20
2019-04-21T12:34:26.067Z,95244.72
2019-04-21T12:36:57.053Z,95240.94
2019-04-21T12:39:27.461Z,95237.44
2019-04-21T12:41:58.491Z,95237.05
2019-04-21T12:44:29.528Z,95230.19
2019-04-21T12:46:59.956Z,95231.19
2019-04-21T12:49:31.801Z,95226.70
2019-04-21T12:52:03.787Z,95221.33
2019-04-21T12:54:35.451Z,95223.72
2019-04-21T12:57:07.576Z,95213.44
2019-04-21T12:59:39.605Z,95208.40
2019-04-21T13:02:10.045Z,95210.36
2019-04-21T13:04:41.779Z,95198.02
2019-04-21T13:07:13.269Z,95202.09
2019-04-21T13:09:44.295Z,95203.09
2019-04-21T13:12:15.219Z,95201.58
2019-04-21T13:14:45.918Z,95190.64
2019-04-21T13:17:17.294Z,95200.80
2019-04-21T13:19:47.671Z,95193.16
2019-04-21T13:22:18.362Z,95190.70
2019-04-21T13:24:49.635Z,95188.81
2019-04-21T13:27:20.649Z,95177.91
2019-04-21T13:29:52.534Z,95178.97
2019-04-21T13:32:23.192Z,95176.36
2019-04-21T13:34:54.972Z,95172.23
2019-04-21T13:37:25.705Z,95179.92
2019-04-21T13:40:31.218Z,95169.30
2019-04-21T13:42:49.636Z,95164.34
2019-04-21T13:45:18.357Z,95170.36
2019-04-21T13:47:48.780Z,95164.31
2019-04-21T13:50:19.600Z,95160.06
2019-04-21T13:52:51.132Z,95164.30
2019-04-21T13:55:21.583Z,95160.77
2019-04-21T13:57:52.587Z,95155.88
2019-04-21T14:00:24.123Z,95170.08
2019-04-21T14:02:54.670Z,95157.17
2019-04-21T14:05:26.488Z,95161.07
2019-04-21T14:07:58.055Z,95155.44
2019-04-21T14:10:29.257Z,95148.84
2019-04-21T14:13:00.471Z,95146.94
2019-04-21T14:15:32.438Z,95141.81
2019-04-21T14:18:02.976Z,95143.53
2019-04-21T14:20:33.473Z,95131.61
2019-04-21T14:23:15.612Z,95135.18
2019-04-21T14:25:37.536Z,95129.17
2019-04-21T14:28:08.328Z,95124.99
2019-04-21T14:30:38.850Z,95121.45
2019-04-21T14:33:10.021Z,95112.67
2019-04-21T14:35:41.108Z,95121.11
2019-04-21T14:38:11.642Z,95111.86
2019-04-21T14:40:42.090Z,95111.42
2019-04-21T14:43:14.289Z,95112.32
2019-04-21T14:46:03.935Z,95109.80
2019-04-21T14:49:03.567Z,95102.06
2019-04-21T14:51:45.440Z,95111.66
2019-04-21T14:54:40.468Z,95104.44
2019-04-21T14:57:11.529Z,95097.56
2019-04-21T14:59:42.838Z,95101.09
2019-04-21T15:02:14.055Z,95096.09
2019-04-21T15:04:45.911Z,95097.39
2019-04-21T15:07:17.100Z,95094.18
2019-04-21T15:09:58.802Z,95088.09
2019-04-21T15:12:20.955Z,95093.45
2019-04-21T15:14:51.917Z,95090.95
2019-04-21T15:17:24.119Z,95085.67
2019-04-21T15:20:01.921Z,95085.57
2019-04-21T15:22:26.464Z,95084.78
2019-04-21T15:24:58.493Z,95087.33
2019-04-21T15:27:29.022Z,95079.81
2019-04-21T15:30:00.562Z,95090.39
2019-04-21T15:32:32.587Z,95077.23
2019-04-21T15:35:04.060Z,95066.38
2019-04-21T15:37:35.746Z,95066.48
2019-04-21T15:40:18.209Z,95063.06
2019-04-21T15:42:40.298Z,95068.41
2019-04-21T15:45:10.678Z,95064.23
2019-04-21T15:47:42.123Z,95059.55
2019-04-21T15:50:17.304Z,95059.44
2019-04-21T15:52:45.659Z,95056.22
2019-04-21T15:55:36.999Z,95054.89
2019-04-21T15:58:32.504Z,95060.77
2019-04-21T16:01:16.591Z,95058.31
2019-04-21T16:03:49.006Z,95057.81
2019-04-21T16:06:19.493Z,95063.00
2019-04-21T16:08:55.214Z,95058.08
2019-04-21T16:11:24.022Z,95052.16
2019-04-21T16:13:55.475Z,95045.55
2019-04-21T16:16:29.094Z,95049.79
2019-04-21T16:19:00.410Z,95048.41
2019-04-21T16:21:31.795Z,95052.95
2019-04-21T16:24:04.496Z,95048.42
2019-04-21T16:26:35.568Z,95049.33
2019-04-21T16:29:07.167Z,95047.17
2019-04-21T16:31:38.340Z,95043.23
2019-04-21T16:34:09.285Z,95044.52
2019-04-21T16:36:39.811Z,95034.86
2019-04-21T16:39:11.481Z,95042.47
2019-04-21T16:41:42.501Z,95031.61
2019-04-21T16:44:13.448Z,95038.86
2019-04-21T16:46:45.447Z,95035.91
2019-04-21T16:49:17.879Z,95020.58
2019-04-21T16:51:50.103Z,95032.06
2019-04-21T16:54:28.895Z,95025.10
2019-04-21T16:57:10.118Z,95026.60
2019-04-21T16:59:56.536Z,95038.08
2019-04-21T17:02:28.390Z,95034.59
2019-04-21T17:04:58.730Z,95030.81
2019-04-21T17:07:30.372Z,95034.80
2019-04-21T17:10:02.558Z,95037.36
2019-04-21T17:12:33.048Z,95039.45
2019-04-21T17:16:24.411Z,95038.67
2019-04-21T17:17:59.082Z,95052.38
2019-04-21T17:20:19.227Z,95054.16
2019-04-21T17:22:41.740Z,95043.41
2019-04-21T17:25:14.117Z,95052.90
2019-04-21T17:27:44.911Z,95052.63
2019-04-21T17:30:17.147Z,95055.63
2019-04-21T17:32:49.862Z,95054.83
2019-04-21T17:35:21.117Z,95056.63
2019-04-21T17:37:52.106Z,95066.50
2019-04-21T17:40:26.356Z,95066.50
2019-04-21T17:43:02.055Z,95068.16
2019-04-21T17:45:29.203Z,95066.83
2019-04-21T17:48:05.147Z,95066.72
2019-04-21T17:50:57.082Z,95072.06
2019-04-21T17:53:42.940Z,95074.92
2019-04-21T17:56:32.977Z,95078.84
2019-04-21T17:59:01.752Z,95075.75
2019-04-21T18:01:40.739Z,95080.26
2019-04-21T18:04:12.630Z,95080.45
2019-04-21T18:06:50.191Z,95083.05
2019-04-21T18:09:29.533Z,95079.73
2019-04-21T18:12:01.913Z,95082.23
2019-04-21T18:14:13.720Z,95087.91
2019-04-21T18:16:47.881Z,95090.59
2019-04-21T18:19:19.420Z,95094.42
2019-04-21T18:22:19.730Z,95092.69
2019-04-21T18:24:59.098Z,95093.05
2019-04-21T18:27:26.395Z,95098.52
2019-04-21T18:29:59.979Z,95099.52
2019-04-21T18:32:35.297Z,95104.22
2019-04-21T18:35:19.175Z,95102.05
2019-04-21T18:38:03.475Z,95100.43
2019-04-21T18:40:33.005Z,95107.26
2019-04-21T18:43:44.785Z,95111.48
2019-04-21T18:46:22.866Z,95115.13
2019-04-21T18:48:40.971Z,95113.11
2019-04-21T18:51:35.845Z,95113.38
2019-04-21T18:54:20.980Z,95118.48
2019-04-21T18:56:31.717Z,95117.36
2019-04-21T18:59:02.579Z,95117.55
2019-04-21T19:01:35.214Z,95116.17
2019-04-21T19:04:13.401Z,95120.66
2019-04-21T19:06:54.624Z,95122.94
2019-04-21T19:09:44.556Z,95124.00
2019-04-21T19:12:04.809Z,95133.41
2019-04-21T19:14:37.392Z,95130.34
2019-04-21T19:17:39.659Z,95129.19
2019-04-21T19:19:44.220Z,95138.23
2019-04-21T19:22:09.128Z,95140.17
2019-04-21T19:24:48.681Z,95134.49
2019-04-21T19:27:20.873Z,95138.33
2019-04-21T19:29:58.349Z,95133.22
2019-04-21T19:34:40.885Z,95132.00
2019-04-21T19:37:14.998Z,95139.95
2019-04-21T19:39:56.163Z,95139.09
2019-04-21T19:42:25.698Z,95134.48
2019-04-21T19:44:59.228Z,95140.48
2019-04-21T19:47:41.494Z,95144.44
2019-04-21T19:50:10.840Z,95138.52
2019-04-21T19:52:34.541Z,95138.22
2019-04-21T19:54:56.777Z,95134.05
2019-04-21T19:57:29.152Z,95126.95
2019-04-21T20:00:03.698Z,95126.78
2019-04-21T20:02:32.607Z,95128.89
2019-04-21T20:05:07.944Z,95122.58
2019-04-21T20:07:49.748Z,95126.14
2019-04-21T20:10:33.245Z,95125.53
2019-04-21T20:13:02.910Z,95122.53
2019-04-21T20:15:36.113Z,95116.61
2019-04-21T20:17:58.846Z,95121.67
2019-04-21T20:20:19.288Z,95117.93
2019-04-21T20:22:51.880Z,95124.59
2019-04-21T20:25:23.687Z,95122.66
2019-04-21T20:28:03.752Z,95123.16
2019-04-21T20:30:42.571Z,95122.36
2019-04-21T20:38:16.029Z,95123.17
2019-04-21T20:40:45.729Z,95120.48
2019-04-21T20:43:28.484Z,95126.72
2019-04-21T20:48:25.252Z,95119.56
2019-04-21T20:51:06.653Z,95122.95
2019-04-21T20:53:33.027Z,95126.62
2019-04-21T20:56:03.446Z,95124.30
2019-04-21T20:58:40.890Z,95118.42
2019-04-21T21:03:45.183Z,95118.29
2019-04-21T21:06:10.921Z,95122.02
2019-04-21T21:08:49.893Z,95120.51
2019-04-21T21:11:21.324Z,95120.14
2019-04-21T21:13:53.688Z,95122.27
2019-04-21T21:16:45.058Z,95121.14
2019-04-21T21:21:30.082Z,95124.31
2019-04-21T21:24:03.487Z,95124.45
2019-04-21T21:26:38.128Z,95122.14
2019-04-21T21:28:57.465Z,95118.17
2019-04-21T21:31:41.488Z,95123.10
2019-04-21T21:34:17.580Z,95123.44
2019-04-21T21:36:51.107Z,95129.10
2019-04-21T21:39:15.538Z,95133.41
2019-04-21T21:41:38.560Z,95133.11
2019-04-21T21:44:12.729Z,95133.34
2019-04-21T21:46:51.744Z,95138.67
2019-04-21T21:49:27.969Z,95129.66
2019-04-21T21:51:56.925Z,95129.71
2019-04-21T21:54:15.964Z,95127.08
2019-04-21T21:56:46.800Z,95131.58
2019-04-21T21:59:22.812Z,95121.59
2019-04-21T22:01:52.539Z,95124.94
2019-04-21T22:04:26.781Z,95122.55
2019-04-21T22:07:00.361Z,95124.63
2019-04-21T22:09:26.467Z,95124.94
2019-04-21T22:12:00.833Z,95129.30
2019-04-21T22:14:38.647Z,95119.16
2019-04-21T22:17:17.490Z,95127.27
2019-04-21T22:19:59.143Z,95123.37
2019-04-21T22:22:21.550Z,95132.73
2019-04-21T22:24:51.074Z,95129.25
2019-04-21T22:27:10.313Z,95129.34
2019-04-21T22:29:44.030Z,95127.46
2019-04-21T22:32:18.804Z,95120.38
2019-04-21T22:34:51.435Z,95121.73
2019-04-21T22:37:35.245Z,95114.30
2019-04-21T22:40:04.739Z,95109.84
2019-04-21T22:42:29.464Z,95117.20
2019-04-21T22:44:56.662Z,95115.77
2019-04-21T22:47:33.787Z,95110.12
2019-04-21T22:49:59.433Z,95103.86
2019-04-21T22:52:31.993Z,95106.13
2019-04-21T22:55:08.257Z,95107.67
2019-04-21T22:57:40.794Z,95113.20
2019-04-21T23:00:11.845Z,95108.69
2019-04-21T23:02:44.137Z,95108.56
2019-04-21T23:05:20.697Z,95102.92
2019-04-21T23:07:51.184Z,95103.57
2019-04-21T23:10:21.132Z,95104.77
2019-04-21T23:12:52.212Z,95095.00
2019-04-21T23:15:33.218Z,95095.44
2019-04-21T23:18:11.965Z,95094.95
2019-04-21T23:20:49.359Z,95087.78
2019-04-21T23:23:25.020Z,95093.08
2019-04-21T23:25:47.238Z,95088.09
2019-04-21T23:28:22.212Z,95092.78
2019-04-21T23:31:00.831Z,95089.69
2019-04-21T23:33:14.292Z,95085.56
2019-04-21T23:35:45.722Z,95090.78
2019-04-21T23:38:14.736Z,95087.02
2019-04-21T23:40:54.226Z,95091.33
2019-04-21T23:43:23.864Z,95086.74
2019-04-21T23:45:52.097Z,95079.66
2019-04-21T23:48:35.413Z,95085.95
2019-04-21T23:51:10.941Z,95075.14
2019-04-21T23:53:27.163Z,95081.86
2019-04-21T23:55:59.148Z,95076.30
2019-04-21T23:58:32.817Z,95077.42
